createdAt,value
2022-10-19T00:01:19.602Z,22.60
2022-10-19T00:06:26.969Z,22.90
2022-10-19T00:08:57.744Z,23.00
2022-10-19T00:11:26.834Z,23.20
2022-10-19T00:13:56.276Z,23.30
2022-10-19T00:16:26.693Z,23.30
2022-10-19T00:18:58.115Z,23.50
2022-10-19T00:21:27.225Z,23.40
2022-10-19T00:23:55.574Z,23.30
2022-10-19T00:26:23.837Z,23.00
2022-10-19T00:28:55.455Z,22.80
2022-10-19T00:31:24.331Z,22.70
2022-10-19T00:33:52.248Z,22.80
2022-10-19T00:36:20.478Z,23.00
2022-10-19T00:38:48.966Z,23.10
2022-10-19T00:41:18.638Z,23.20
2022-10-19T00:43:58.233Z,23.30
2022-10-19T00:46:28.211Z,23.40
2022-10-19T00:49:09.974Z,23.50
2022-10-19T00:51:44.519Z,23.60
2022-10-19T00:54:13.239Z,23.50
2022-10-19T00:56:42.394Z,23.20
2022-10-19T00:59:11.589Z,23.00
2022-10-19T01:01:40.199Z,22.80
2022-10-19T01:04:09.373Z,22.60
2022-10-19T01:06:39.045Z,22.60
2022-10-19T01:09:08.378Z,22.70
2022-10-19T01:11:54.812Z,22.90
2022-10-19T01:14:29.131Z,23.10
2022-10-19T01:17:01.947Z,23.20
2022-10-19T01:19:32.975Z,23.30
2022-10-19T01:22:07.527Z,23.40
2022-10-19T01:24:44.925Z,23.50
2022-10-19T01:27:36.376Z,23.60
2022-10-19T01:30:37.134Z,23.60
2022-10-19T01:33:30.726Z,23.20
2022-10-19T01:36:31.541Z,22.90
2022-10-19T01:39:02.585Z,22.70
2022-10-19T01:41:36.931Z,22.60
2022-10-19T01:44:12.841Z,22.70
2022-10-19T01:46:44.275Z,22.90
2022-10-19T01:49:29.044Z,23.00
2022-10-19T01:52:02.514Z,23.10
2022-10-19T01:54:35.116Z,23.30
2022-10-19T01:57:06.634Z,23.40
2022-10-19T01:59:35.950Z,23.40
2022-10-19T02:02:07.839Z,23.50
2022-10-19T02:04:38.318Z,23.60
2022-10-19T02:07:08.277Z,23.60
2022-10-19T02:09:36.550Z,23.30
2022-10-19T02:12:10.035Z,23.00
2022-10-19T02:14:43.124Z,22.80
2022-10-19T02:17:19.852Z,23.00
2022-10-19T02:19:48.030Z,23.10
2022-10-19T02:22:16.174Z,23.20
2022-10-19T02:25:00.097Z,23.30
2022-10-19T02:27:28.302Z,23.40
2022-10-19T02:30:33.984Z,23.50
2022-10-19T02:32:48.739Z,23.60
2022-10-19T02:35:17.269Z,23.50
2022-10-19T02:37:45.804Z,23.20
2022-10-19T02:40:14.106Z,23.00
2022-10-19T02:42:50.738Z,22.80
2022-10-19T02:45:34.351Z,22.70
2022-10-19T02:48:17.806Z,22.80
2022-10-19T02:50:46.769Z,23.00
2022-10-19T02:53:15.996Z,23.10
2022-10-19T02:55:44.447Z,23.30
2022-10-19T02:58:12.640Z,23.40
2022-10-19T03:00:40.872Z,23.50
2022-10-19T03:03:09.717Z,23.50
2022-10-19T03:05:37.975Z,23.60
2022-10-19T03:08:06.416Z,23.50
2022-10-19T03:10:34.495Z,23.30
2022-10-19T03:13:02.792Z,23.00
2022-10-19T03:15:31.085Z,22.80
2022-10-19T03:17:59.247Z,22.70
2022-10-19T03:20:27.511Z,22.80
2022-10-19T03:22:55.577Z,23.00
2022-10-19T03:25:23.870Z,23.20
2022-10-19T03:27:54.333Z,23.30
2022-10-19T03:30:22.497Z,23.40
2022-10-19T03:32:51.246Z,23.40
2022-10-19T03:35:19.615Z,23.50
2022-10-19T03:37:47.737Z,23.50
2022-10-19T03:40:15.985Z,23.60
2022-10-19T03:42:44.183Z,23.50
2022-10-19T03:45:12.519Z,23.20
2022-10-19T03:47:40.541Z,22.90
2022-10-19T03:50:09.142Z,22.70
2022-10-19T03:52:37.300Z,22.70
2022-10-19T03:55:05.837Z,22.90
2022-10-19T03:57:34.157Z,23.00
2022-10-19T04:00:02.619Z,23.20
2022-10-19T04:02:39.829Z,23.20
2022-10-19T04:05:08.614Z,23.30
2022-10-19T04:07:36.432Z,23.40
2022-10-19T04:10:05.213Z,23.40
2022-10-19T04:12:33.664Z,23.50
2022-10-19T04:15:01.782Z,23.60
2022-10-19T04:17:29.913Z,23.40
2022-10-19T04:19:58.096Z,23.20
2022-10-19T04:22:26.275Z,22.90
2022-10-19T04:24:54.705Z,22.70
2022-10-19T04:27:22.865Z,22.60
2022-10-19T04:29:50.945Z,22.80
2022-10-19T04:32:19.203Z,23.00
2022-10-19T04:34:47.504Z,23.10
2022-10-19T04:37:15.574Z,23.20
2022-10-19T04:39:43.863Z,23.30
2022-10-19T04:42:11.958Z,23.30
2022-10-19T04:44:40.230Z,23.40
2022-10-19T04:47:08.424Z,23.50
2022-10-19T04:49:36.632Z,23.60
2022-10-19T04:52:04.982Z,23.50
2022-10-19T04:54:33.300Z,23.20
2022-10-19T04:57:01.540Z,23.00
2022-10-19T04:59:29.747Z,22.80
2022-10-19T05:01:58.034Z,22.70
2022-10-19T05:04:26.288Z,22.80
2022-10-19T05:06:54.525Z,23.00
2022-10-19T05:09:22.969Z,23.10
2022-10-19T05:11:51.349Z,23.20
2022-10-19T05:14:19.627Z,23.30
2022-10-19T05:16:48.009Z,23.30
2022-10-19T05:19:16.155Z,23.40
2022-10-19T05:21:44.430Z,23.50
2022-10-19T05:24:13.259Z,23.60
2022-10-19T05:26:41.651Z,23.50
2022-10-19T05:29:12.964Z,23.30
2022-10-19T05:31:41.941Z,23.00
2022-10-19T05:34:10.550Z,22.80
2022-10-19T05:36:39.724Z,22.60
2022-10-19T05:39:09.522Z,22.70
2022-10-19T05:41:37.804Z,22.80
2022-10-19T05:44:06.918Z,23.00
2022-10-19T05:46:35.595Z,23.10
2022-10-19T05:49:04.004Z,23.20
2022-10-19T05:51:32.354Z,23.30
2022-10-19T05:54:00.625Z,23.30
2022-10-19T05:56:31.155Z,23.40
2022-10-19T05:59:01.268Z,23.40
2022-10-19T06:01:30.666Z,23.50
2022-10-19T06:04:00.473Z,23.50
2022-10-19T06:06:28.853Z,23.10
2022-10-19T06:08:58.127Z,22.80
2022-10-19T06:11:31.464Z,22.70
2022-10-19T06:14:00.729Z,22.80
2022-10-19T06:16:30.271Z,23.00
2022-10-19T06:18:59.595Z,23.10
2022-10-19T06:21:30.029Z,23.20
2022-10-19T06:24:01.065Z,23.30
2022-10-19T06:26:31.163Z,23.30
2022-10-19T06:29:01.111Z,23.30
2022-10-19T06:31:37.443Z,23.40
2022-10-19T06:34:06.342Z,23.50
2022-10-19T06:36:35.300Z,23.60
2022-10-19T06:39:03.651Z,23.30
2022-10-19T06:41:33.090Z,23.00
2022-10-19T06:44:18.841Z,22.70
2022-10-19T06:46:47.250Z,22.80
2022-10-19T06:49:15.808Z,22.90
2022-10-19T06:51:44.092Z,23.10
2022-10-19T06:54:12.226Z,23.10
2022-10-19T06:56:40.743Z,23.30
2022-10-19T06:59:08.980Z,23.30
2022-10-19T07:01:37.317Z,23.40
2022-10-19T07:04:05.836Z,23.40
2022-10-19T07:06:33.922Z,23.50
2022-10-19T07:09:02.257Z,23.50
2022-10-19T07:11:30.555Z,23.40
2022-10-19T07:13:58.731Z,23.10
2022-10-19T07:16:27.202Z,22.80
2022-10-19T07:18:55.569Z,22.70
2022-10-19T07:21:24.528Z,22.90
2022-10-19T07:23:53.146Z,23.10
2022-10-19T07:26:23.450Z,23.10
2022-10-19T07:28:52.092Z,23.30
2022-10-19T07:31:25.653Z,23.30
2022-10-19T07:33:59.388Z,23.40
2022-10-19T07:36:29.821Z,23.40
2022-10-19T07:38:58.766Z,23.50
2022-10-19T07:41:27.719Z,23.50
2022-10-19T07:43:56.611Z,23.30
2022-10-19T07:46:27.786Z,23.00
2022-10-19T07:48:56.742Z,22.80
2022-10-19T07:51:24.705Z,22.60
2022-10-19T07:53:54.458Z,22.80
2022-10-19T07:56:27.203Z,22.90
2022-10-19T07:58:57.915Z,23.10
2022-10-19T08:01:31.765Z,23.10
2022-10-19T08:06:49.695Z,23.30
2022-10-19T08:09:47.117Z,23.40
2022-10-19T08:12:07.113Z,23.50
2022-10-19T08:14:35.176Z,23.50
2022-10-19T08:17:04.025Z,23.40
2022-10-19T08:19:32.606Z,23.20
2022-10-19T08:22:00.781Z,22.90
2022-10-19T08:24:29.247Z,22.70
2022-10-19T08:26:58.296Z,22.60
2022-10-19T08:29:29.092Z,22.60
2022-10-19T08:32:00.487Z,22.80
2022-10-19T08:34:29.227Z,22.90
2022-10-19T08:36:57.782Z,23.10
2022-10-19T08:39:25.991Z,23.20
2022-10-19T08:42:04.994Z,23.20
2022-10-19T08:44:49.525Z,23.30
2022-10-19T08:47:24.149Z,23.30
2022-10-19T08:49:53.088Z,23.40
2022-10-19T08:52:29.521Z,23.50
2022-10-19T08:55:20.941Z,23.50
2022-10-19T08:58:07.485Z,23.20
2022-10-19T09:01:02.535Z,22.80
2022-10-19T09:03:54.910Z,22.70
2022-10-19T09:06:50.596Z,22.70
2022-10-19T09:09:21.213Z,22.90
2022-10-19T09:11:51.802Z,23.00
2022-10-19T09:14:40.225Z,23.20
2022-10-19T09:17:14.831Z,23.30
2022-10-19T09:19:43.326Z,23.30
2022-10-19T09:22:23.691Z,23.40
2022-10-19T09:24:56.177Z,23.40
2022-10-19T09:27:27.462Z,23.50
2022-10-19T09:30:02.276Z,23.60
2022-10-19T09:32:39.298Z,23.40
2022-10-19T09:35:26.771Z,23.10
2022-10-19T09:37:56.399Z,22.90
2022-10-19T09:40:30.833Z,22.70
2022-10-19T09:42:59.369Z,22.60
2022-10-19T09:45:51.510Z,22.50
2022-10-19T09:48:38.236Z,22.40
2022-10-19T09:51:13.618Z,22.50
2022-10-19T09:53:57.785Z,22.70
2022-10-19T09:56:28.167Z,22.90
2022-10-19T09:58:58.667Z,23.00
2022-10-19T10:01:43.548Z,23.10
2022-10-19T10:04:17.311Z,23.20
2022-10-19T10:06:48.827Z,23.30
2022-10-19T10:09:24.947Z,23.30
2022-10-19T10:11:57.512Z,23.40
2022-10-19T10:14:32.822Z,23.40
2022-10-19T10:17:12.488Z,23.50
2022-10-19T10:19:59.895Z,23.30
2022-10-19T10:22:34.316Z,23.00
2022-10-19T10:25:11.677Z,22.80
2022-10-19T10:27:40.530Z,22.70
2022-10-19T10:30:10.586Z,22.60
2022-10-19T10:32:45.794Z,22.50
2022-10-19T10:35:36.724Z,22.50
2022-10-19T10:38:36.211Z,22.70
2022-10-19T10:41:11.383Z,22.80
2022-10-19T10:43:53.095Z,23.00
2022-10-19T10:46:25.945Z,23.10
2022-10-19T10:49:08.882Z,23.20
2022-10-19T10:51:50.713Z,23.20
2022-10-19T10:54:32.339Z,23.30
2022-10-19T11:00:03.567Z,23.50
2022-10-19T11:02:42.524Z,23.40
2022-10-19T11:05:30.021Z,23.10
2022-10-19T11:08:15.061Z,22.90
2022-10-19T11:11:02.581Z,22.70
2022-10-19T11:13:52.389Z,22.70
2022-10-19T11:16:40.413Z,22.60
2022-10-19T11:19:25.062Z,22.50
2022-10-19T11:22:11.355Z,22.40
2022-10-19T11:25:01.307Z,22.30
2022-10-19T11:28:21.605Z,22.30
2022-10-19T11:31:24.593Z,22.30
2022-10-19T11:34:03.072Z,22.60
2022-10-19T11:36:53.668Z,22.80
2022-10-19T11:39:40.799Z,22.90
2022-10-19T11:42:33.691Z,23.00
2022-10-19T11:45:07.196Z,23.10
2022-10-19T11:48:04.766Z,23.20
2022-10-19T11:50:39.427Z,23.30
2022-10-19T11:53:45.785Z,23.30
2022-10-19T11:56:39.320Z,23.50
2022-10-19T11:59:43.391Z,23.30
2022-10-19T12:02:23.937Z,23.00
2022-10-19T12:04:57.964Z,22.70
2022-10-19T12:07:44.990Z,22.60
2022-10-19T12:10:41.916Z,22.50
2022-10-19T12:13:15.609Z,22.40
2022-10-19T12:15:48.505Z,22.40
2022-10-19T12:18:38.643Z,22.60
2022-10-19T12:21:26.920Z,22.80
2022-10-19T12:23:56.835Z,23.00
2022-10-19T12:26:28.389Z,23.00
2022-10-19T12:29:13.046Z,23.10
2022-10-19T12:31:41.966Z,23.20
2022-10-19T12:34:24.511Z,23.30
2022-10-19T12:36:59.223Z,23.40
2022-10-19T12:39:37.706Z,23.40
2022-10-19T12:42:18.468Z,23.40
2022-10-19T12:44:52.637Z,23.10
2022-10-19T12:47:25.301Z,22.90
2022-10-19T12:49:57.831Z,22.70
2022-10-19T12:52:35.624Z,22.60
2022-10-19T12:55:23.980Z,22.50
2022-10-19T12:58:05.419Z,22.50
2022-10-19T13:00:36.890Z,22.40
2022-10-19T13:03:05.212Z,22.30
2022-10-19T13:05:35.215Z,22.30
2022-10-19T13:08:09.282Z,22.30
2022-10-19T13:10:40.427Z,22.30
2022-10-19T13:13:47.135Z,22.50
2022-10-19T13:16:30.844Z,22.70
2022-10-19T13:19:20.052Z,22.90
2022-10-19T13:22:01.718Z,23.10
2022-10-19T13:24:36.330Z,23.10
2022-10-19T13:27:04.760Z,23.20
2022-10-19T13:31:31.854Z,23.30
2022-10-19T13:34:00.422Z,23.40
2022-10-19T13:36:28.990Z,23.40
2022-10-19T13:39:06.851Z,23.20
2022-10-19T13:41:38.296Z,23.00
2022-10-19T13:44:09.626Z,22.80
2022-10-19T13:47:13.125Z,22.70
2022-10-19T13:50:07.180Z,22.60
2022-10-19T13:52:59.714Z,22.50
2022-10-19T13:56:12.810Z,22.50
2022-10-19T13:59:15.898Z,22.50
2022-10-19T14:02:28.404Z,22.60
2022-10-19T14:05:30.203Z,22.70
2022-10-19T14:08:07.700Z,22.80
2022-10-19T14:11:00.113Z,22.90
2022-10-19T14:13:27.300Z,23.00
2022-10-19T14:15:57.973Z,23.10
2022-10-19T14:18:28.406Z,23.20
2022-10-19T14:20:59.340Z,23.30
2022-10-19T14:23:36.841Z,23.40
2022-10-19T14:26:15.465Z,23.40
2022-10-19T14:28:43.981Z,23.20
2022-10-19T14:31:20.565Z,23.00
2022-10-19T14:33:53.253Z,23.00
2022-10-19T14:36:24.488Z,23.10
2022-10-19T14:38:56.550Z,23.20
2022-10-19T14:41:27.832Z,23.30
2022-10-19T14:43:57.845Z,23.40
2022-10-19T14:46:35.640Z,23.50
2022-10-19T14:49:06.547Z,23.50
2022-10-19T14:51:44.000Z,23.20
2022-10-19T14:54:39.461Z,23.00
2022-10-19T14:57:18.126Z,22.80
2022-10-19T14:59:58.077Z,22.70
2022-10-19T15:02:29.515Z,22.60
2022-10-19T15:05:01.192Z,22.60
2022-10-19T15:07:40.160Z,22.50
2022-10-19T15:10:22.167Z,22.50
2022-10-19T15:12:52.142Z,22.40
2022-10-19T15:15:29.765Z,22.40
2022-10-19T15:18:01.352Z,22.40
2022-10-19T15:20:49.124Z,22.50
2022-10-19T15:23:45.607Z,22.50
2022-10-19T15:26:17.536Z,22.60
2022-10-19T15:28:46.705Z,22.70
2022-10-19T15:31:20.774Z,22.80
2022-10-19T15:33:51.876Z,23.00
2022-10-19T15:36:22.269Z,23.10
2022-10-19T15:39:45.762Z,23.20
2022-10-19T15:42:42.629Z,23.40
2022-10-19T15:45:37.684Z,23.40
2022-10-19T15:48:16.894Z,23.20
2022-10-19T15:50:48.114Z,23.00
2022-10-19T15:53:17.289Z,22.90
2022-10-19T15:55:45.704Z,22.80
2022-10-19T15:58:14.975Z,22.80
2022-10-19T16:00:43.719Z,22.70
2022-10-19T16:03:11.626Z,22.70
2022-10-19T16:05:39.761Z,22.70
2022-10-19T16:08:11.605Z,22.80
2022-10-19T16:10:40.804Z,22.90
2022-10-19T16:13:09.054Z,22.90
2022-10-19T16:15:37.844Z,23.00
2022-10-19T16:18:05.699Z,23.10
2022-10-19T16:20:33.933Z,23.20
2022-10-19T16:23:02.426Z,23.10
2022-10-19T16:25:31.035Z,23.00
2022-10-19T16:27:59.290Z,23.10
2022-10-19T16:30:27.768Z,23.20
2022-10-19T16:32:56.019Z,23.20
2022-10-19T16:35:24.308Z,23.10
2022-10-19T16:37:52.667Z,23.00
2022-10-19T16:40:21.130Z,22.90
2022-10-19T16:42:51.315Z,22.80
2022-10-19T16:45:19.685Z,22.80
2022-10-19T16:47:51.131Z,22.80
2022-10-19T16:50:19.701Z,22.80
2022-10-19T16:52:48.178Z,22.90
2022-10-19T16:55:16.288Z,22.90
2022-10-19T16:57:44.638Z,23.00
2022-10-19T17:00:13.539Z,23.10
2022-10-19T17:02:44.417Z,23.20
2022-10-19T17:05:14.753Z,23.20
2022-10-19T17:07:43.090Z,23.10
2022-10-19T17:10:11.404Z,23.00
2022-10-19T17:12:45.895Z,23.20
2022-10-19T17:15:43.858Z,23.30
2022-10-19T17:18:02.359Z,23.40
2022-10-19T17:20:30.559Z,23.30
2022-10-19T17:22:58.901Z,23.10
2022-10-19T17:25:28.259Z,23.00
2022-10-19T17:27:56.631Z,22.80
2022-10-19T17:30:24.746Z,22.80
2022-10-19T17:32:53.073Z,22.80
2022-10-19T17:35:21.370Z,22.80
2022-10-19T17:37:49.632Z,22.80
2022-10-19T17:40:18.046Z,22.90
2022-10-19T17:42:46.252Z,23.00
2022-10-19T17:45:14.523Z,23.10
2022-10-19T17:47:42.907Z,23.20
2022-10-19T17:50:11.654Z,23.30
2022-10-19T17:54:03.144Z,23.40
2022-10-19T17:56:31.727Z,23.40
2022-10-19T17:59:00.599Z,23.40
2022-10-19T18:01:29.490Z,23.20
2022-10-19T18:03:58.193Z,23.00
2022-10-19T18:06:31.606Z,22.80
2022-10-19T18:09:06.191Z,22.80
2022-10-19T18:11:40.757Z,22.70
2022-10-19T18:14:10.845Z,22.70
2022-10-19T18:16:46.966Z,22.80
2022-10-19T18:19:17.049Z,22.90
2022-10-19T18:21:47.531Z,23.00
2022-10-19T18:24:20.896Z,23.10
2022-10-19T18:26:50.722Z,23.20
2022-10-19T18:29:22.105Z,23.30
2022-10-19T18:31:51.174Z,23.40
2022-10-19T18:34:25.283Z,23.40
2022-10-19T18:36:54.271Z,23.50
2022-10-19T18:39:23.025Z,23.40
2022-10-19T18:41:52.010Z,23.10
2022-10-19T18:44:25.269Z,23.10
2022-10-19T18:46:56.433Z,23.30
2022-10-19T18:49:25.106Z,23.40
2022-10-19T18:51:55.459Z,23.40
2022-10-19T18:54:25.494Z,23.60
2022-10-19T18:56:53.809Z,23.50
2022-10-19T18:59:22.090Z,23.30
2022-10-19T19:01:50.717Z,23.10
2022-10-19T19:04:18.947Z,22.90
2022-10-19T19:06:47.305Z,22.80
2022-10-19T19:09:15.612Z,22.70
2022-10-19T19:11:43.898Z,22.60
2022-10-19T19:14:19.212Z,22.60
2022-10-19T19:16:47.475Z,22.70
2022-10-19T19:19:17.818Z,22.70
2022-10-19T19:21:47.388Z,22.90
2022-10-19T19:24:18.257Z,23.00
2022-10-19T19:26:50.319Z,23.20
2022-10-19T19:29:19.485Z,23.30
2022-10-19T19:31:48.046Z,23.40
2022-10-19T19:34:16.789Z,23.50
2022-10-19T19:36:44.716Z,23.60
2022-10-19T19:39:13.331Z,23.60
2022-10-19T19:41:41.367Z,23.40
2022-10-19T19:44:09.626Z,23.10
2022-10-19T19:46:38.362Z,22.90
2022-10-19T19:49:06.522Z,22.70
2022-10-19T19:51:35.180Z,22.70
2022-10-19T19:54:03.958Z,22.60
2022-10-19T19:56:31.994Z,22.60
2022-10-19T19:59:01.716Z,22.70
2022-10-19T20:01:31.144Z,22.70
2022-10-19T20:04:00.549Z,22.80
2022-10-19T20:06:30.609Z,22.90
2022-10-19T20:08:59.028Z,23.00
2022-10-19T20:11:29.518Z,23.10
2022-10-19T20:13:57.819Z,23.30
2022-10-19T20:16:29.546Z,23.40
2022-10-19T20:19:07.140Z,23.50
2022-10-19T20:21:35.846Z,23.60
2022-10-19T20:24:03.934Z,23.40
2022-10-19T20:26:32.928Z,23.20
2022-10-19T20:29:03.466Z,22.90
2022-10-19T20:31:32.182Z,22.70
2022-10-19T20:34:00.125Z,22.70
2022-10-19T20:36:28.367Z,22.60
2022-10-19T20:38:58.514Z,22.80
2022-10-19T20:41:29.106Z,23.00
2022-10-19T20:43:58.388Z,23.10
2022-10-19T20:46:29.272Z,23.30
2022-10-19T20:48:59.031Z,23.40
2022-10-19T20:51:33.457Z,23.40
2022-10-19T20:54:04.021Z,23.50
2022-10-19T20:56:35.784Z,23.60
2022-10-19T20:59:07.487Z,23.50
2022-10-19T21:01:39.241Z,23.20
2022-10-19T21:04:09.719Z,23.00
2022-10-19T21:06:43.303Z,22.80
2022-10-19T21:09:21.960Z,22.70
2022-10-19T21:11:50.765Z,22.60
2022-10-19T21:14:25.430Z,22.60
2022-10-19T21:16:58.251Z,22.60
2022-10-19T21:19:29.406Z,22.80
2022-10-19T21:22:02.548Z,23.00
2022-10-19T21:24:33.794Z,23.10
2022-10-19T21:27:06.184Z,23.20
2022-10-19T21:29:35.456Z,23.30
2022-10-19T21:32:03.775Z,23.40
2022-10-19T21:34:33.175Z,23.50
2022-10-19T21:37:01.387Z,23.60
2022-10-19T21:39:29.973Z,23.60
2022-10-19T21:41:58.285Z,23.20
2022-10-19T21:44:26.576Z,23.10
2022-10-19T21:46:54.900Z,22.80
2022-10-19T21:49:23.259Z,22.80
2022-10-19T21:51:55.470Z,22.60
2022-10-19T21:54:25.936Z,22.70
2022-10-19T21:56:54.278Z,22.80
2022-10-19T21:59:22.380Z,23.00
2022-10-19T22:01:50.846Z,23.20
2022-10-19T22:04:19.548Z,23.20
2022-10-19T22:06:48.099Z,23.40
2022-10-19T22:09:19.312Z,23.40
2022-10-19T22:11:47.743Z,23.50
2022-10-19T22:14:17.222Z,23.60
2022-10-19T22:16:45.855Z,23.60
2022-10-19T22:19:14.418Z,23.30
2022-10-19T22:21:42.991Z,23.00
2022-10-19T22:24:17.863Z,22.80
2022-10-19T22:26:48.651Z,22.80
2022-10-19T22:29:17.189Z,23.00
2022-10-19T22:31:45.714Z,23.10
2022-10-19T22:34:18.025Z,23.30
2022-10-19T22:36:46.630Z,23.40
2022-10-19T22:39:15.265Z,23.50
2022-10-19T22:41:43.331Z,23.50
2022-10-19T22:44:11.565Z,23.60
2022-10-19T22:46:39.955Z,23.60
2022-10-19T22:51:37.552Z,23.10
2022-10-19T22:54:06.187Z,22.90
2022-10-19T22:56:34.670Z,22.70
2022-10-19T22:59:05.079Z,22.60
2022-10-19T23:01:33.798Z,22.60
2022-10-19T23:04:01.759Z,22.60
2022-10-19T23:06:30.071Z,22.60
2022-10-19T23:08:58.338Z,22.70
2022-10-19T23:11:26.667Z,22.80
2022-10-19T23:13:54.899Z,22.90
2022-10-19T23:16:23.357Z,23.00
2022-10-19T23:18:51.822Z,23.10
2022-10-19T23:21:20.015Z,23.20
2022-10-19T23:23:51.127Z,23.30
2022-10-19T23:26:21.674Z,23.40
2022-10-19T23:28:50.871Z,23.50
2022-10-19T23:31:21.614Z,23.60
2022-10-19T23:33:49.824Z,23.40
2022-10-19T23:36:21.313Z,23.10
2022-10-19T23:38:51.427Z,22.90
2022-10-19T23:41:20.766Z,22.70
2022-10-19T23:43:49.741Z,22.70
2022-10-19T23:46:18.272Z,22.90
2022-10-19T23:48:46.771Z,23.00
2022-10-19T23:51:20.862Z,23.20
2022-10-19T23:53:51.043Z,23.30
2022-10-19T23:56:22.199Z,23.40
2022-10-19T23:58:51.606Z,23.40
